Terminal Aerodrome Forecast
Issued by NWS Mt. Holly, NJ

Home | Current Version | Previous Version | Text Only | Print | Product List | Glossary On
Versions: 1 2 3 4 5 6 7 8 9 10 11 12 13 14 15 16 17 18
000
FTUS41 KPHI 051125
TAFACY
TAF
KACY 051125Z 0512/0612 VRB04KT P6SM BKN150
     FM051600 28007KT P6SM SCT250
     FM051900 26009G17KT P6SM SCT050
     FM052300 VRB05KT P6SM SCT060=

USA.gov is the U.S. government's official web portal to all federal, state and local government web resources and services.